Time;durP1;ratioP1;P1;durP2;ratioP2;P2;SDS_P1;SDS_P2;PMS_P1;PMS_P2;Temp;Humidity;BMP_temperature;BMP_pressure;BME280_temperature;BME280_humidity;BME280_pressure;Samples;Min_cycle;Max_cycle;Signal;HPM_P1;HPM_P2
2021/05/18 00:00:56;;;;;;;2.50;1.80;;;;;;;24.36;45.56;94193.91;4971076;28;20023;-70
2021/05/18 00:03:21;;;;;;;2.75;2.08;;;;;;;24.41;46.66;94201.25;4971102;28;20109;-71
2021/05/18 00:05:50;;;;;;;2.80;2.33;;;;;;;24.39;46.38;94203.75;4970749;28;20026;-70
2021/05/18 00:08:16;;;;;;;2.65;2.10;;;;;;;24.34;46.14;94196.47;4971018;28;20081;-71
2021/05/18 00:13:37;;;;;;;2.20;1.63;;;;;;;24.25;46.52;94198.91;4959607;28;20030;-71
2021/05/18 00:16:03;;;;;;;2.38;1.67;;;;;;;24.30;46.97;94217.88;4953550;28;20042;-71
2021/05/18 00:18:29;;;;;;;2.53;1.88;;;;;;;24.29;46.84;94221.88;4971130;28;20042;-71
2021/05/18 00:20:54;;;;;;;2.58;1.90;;;;;;;24.29;46.25;94216.41;4970846;28;20035;-71
2021/05/18 00:23:20;;;;;;;2.42;1.90;;;;;;;24.25;46.36;94221.47;4953323;28;20031;-71
2021/05/18 00:25:45;;;;;;;2.60;1.98;;;;;;;24.30;46.97;94228.78;4969350;28;20467;-70
2021/05/18 00:28:11;;;;;;;2.65;1.70;;;;;;;24.11;46.32;94206.44;4953647;28;20023;-71
2021/05/18 00:30:37;;;;;;;2.03;1.58;;;;;;;24.26;46.57;94224.91;4953337;28;20035;-70
2021/05/18 00:33:06;;;;;;;2.35;1.60;;;;;;;24.27;46.62;94229.84;4971022;28;20113;-71
2021/05/18 00:35:31;;;;;;;2.15;1.65;;;;;;;24.23;47.00;94250.53;4970444;28;20031;-71
2021/05/18 00:37:57;;;;;;;3.25;1.90;;;;;;;24.22;46.52;94249.81;4970516;28;20038;-71
2021/05/18 00:40:22;;;;;;;2.38;1.80;;;;;;;24.21;46.70;94242.16;4952067;28;20069;-71
2021/05/18 00:42:49;;;;;;;2.38;1.80;;;;;;;24.23;46.85;94234.91;4970183;28;20150;-70
2021/05/18 00:45:15;;;;;;;2.75;1.65;;;;;;;24.21;46.43;94253.81;4969428;28;20403;-71
2021/05/18 00:47:41;;;;;;;2.20;1.60;;;;;;;24.19;46.95;94261.78;4970509;28;20026;-70
2021/05/18 00:50:07;;;;;;;2.58;1.70;;;;;;;24.17;46.38;94275.25;4937006;28;20520;-71
2021/05/18 00:52:32;;;;;;;2.30;1.80;;;;;;;24.13;47.06;94291.19;4970270;28;20422;-70
2021/05/18 00:55:03;;;;;;;2.10;1.60;;;;;;;24.14;46.46;94298.13;4969925;28;20041;-71
2021/05/18 01:00:13;;;;;;;2.35;1.77;;;;;;;24.17;46.95;94305.25;4955710;28;20061;-70
2021/05/18 01:02:39;;;;;;;2.20;1.58;;;;;;;24.14;47.08;94284.50;4969848;28;20495;-70
2021/05/18 01:05:15;;;;;;;2.15;1.60;;;;;;;24.15;46.92;94266.13;4952580;28;20038;-71
2021/05/18 01:07:40;;;;;;;2.30;1.73;;;;;;;24.12;46.90;94218.81;4970207;28;20018;-71
2021/05/18 01:10:06;;;;;;;1.60;1.30;;;;;;;24.10;47.05;94232.25;4969836;28;20019;-71
2021/05/18 01:12:31;;;;;;;1.90;1.25;;;;;;;24.07;46.55;94233.31;4952513;28;20717;-71
2021/05/18 01:14:57;;;;;;;1.77;1.20;;;;;;;23.72;46.46;94208.63;4952344;28;20033;-71
2021/05/18 01:17:22;;;;;;;1.48;1.13;;;;;;;24.08;46.80;94272.22;4952460;28;20030;-70
2021/05/18 01:19:48;;;;;;;2.75;1.30;;;;;;;24.08;46.60;94267.53;4970101;28;20023;-69
2021/05/18 01:22:13;;;;;;;2.00;1.40;;;;;;;23.97;47.17;94256.84;4969297;28;20030;-70
2021/05/18 01:24:40;;;;;;;2.70;1.40;;;;;;;24.05;46.84;94263.13;4968870;28;20043;-70
2021/05/18 01:27:06;;;;;;;2.15;1.20;;;;;;;24.05;46.83;94268.59;4969516;28;20030;-71
2021/05/18 01:29:32;;;;;;;2.03;1.30;;;;;;;23.83;46.91;94240.38;4969539;28;20023;-70
2021/05/18 01:31:58;;;;;;;1.52;1.30;;;;;;;24.03;46.88;94259.47;4969514;28;20023;-70
2021/05/18 01:34:23;;;;;;;1.92;1.40;;;;;;;24.03;46.57;94260.19;4952520;28;20049;-71
2021/05/18 01:36:49;;;;;;;2.47;1.48;;;;;;;24.04;46.99;94272.56;4952209;28;20033;-70
2021/05/18 01:44:27;;;;;;;2.08;1.38;;;;;;;24.02;46.64;94279.81;4968697;28;20113;-70
2021/05/18 01:46:53;;;;;;;2.35;1.48;;;;;;;24.01;46.73;94276.34;4969410;28;20157;-71
2021/05/18 01:49:19;;;;;;;1.55;1.13;;;;;;;24.00;47.01;94283.06;4969216;28;20474;-70
2021/05/18 01:51:55;;;;;;;1.65;1.23;;;;;;;23.98;47.10;94291.06;4968736;28;20034;-70
2021/05/18 01:54:26;;;;;;;1.45;1.13;;;;;;;24.00;46.78;94299.44;4952010;28;20490;-70
2021/05/18 01:59:37;;;;;;;1.60;1.20;;;;;;;24.00;47.03;94304.16;4968974;28;20034;-70
2021/05/18 02:02:03;;;;;;;1.65;1.02;;;;;;;23.93;46.72;94293.91;4952055;28;20030;-70
2021/05/18 02:04:35;;;;;;;2.10;1.27;;;;;;;23.97;46.90;94292.31;4968042;28;20102;-70
2021/05/18 02:07:15;;;;;;;1.90;1.20;;;;;;;23.95;46.88;94297.56;4968998;28;20019;-70
2021/05/18 02:09:41;;;;;;;1.67;1.00;;;;;;;23.97;47.07;94297.03;4969244;28;20054;-70
2021/05/18 02:12:07;;;;;;;1.45;0.90;;;;;;;23.95;47.12;94313.94;4969181;28;20521;-70
2021/05/18 02:14:34;;;;;;;2.35;1.13;;;;;;;23.57;46.76;94262.22;4968993;28;20027;-70
2021/05/18 02:17:13;;;;;;;1.83;1.20;;;;;;;23.94;47.35;94317.91;4951787;28;20037;-70
2021/05/18 02:25:15;;;;;;;1.52;1.00;;;;;;;23.97;46.71;94337.94;4952585;28;20044;-70
2021/05/18 02:27:40;;;;;;;1.50;1.00;;;;;;;23.70;46.62;94308.56;4950601;28;20034;-70
2021/05/18 02:30:06;;;;;;;1.45;1.02;;;;;;;23.94;46.94;94349.91;4935467;28;20078;-70
2021/05/18 02:32:33;;;;;;;1.52;0.95;;;;;;;23.73;46.52;94351.13;4968965;28;20081;-71
2021/05/18 02:34:58;;;;;;;1.63;1.10;;;;;;;23.84;46.89;94350.88;4935604;28;20035;-70
2021/05/18 02:37:24;;;;;;;1.50;1.00;;;;;;;23.93;46.65;94360.09;4968938;28;20042;-70
2021/05/18 02:39:50;;;;;;;1.73;1.10;;;;;;;23.91;46.73;94368.06;4951175;28;20046;-70
2021/05/18 02:42:15;;;;;;;1.45;0.80;;;;;;;23.87;46.76;94364.94;4935795;28;20117;-70
2021/05/18 02:49:50;;;;;;;1.20;0.77;;;;;;;23.91;46.63;94384.41;4968966;28;20033;-70
2021/05/18 02:52:16;;;;;;;1.63;1.05;;;;;;;23.85;46.71;94391.25;4968515;28;20027;-70
2021/05/18 02:54:45;;;;;;;1.42;1.10;;;;;;;23.86;46.80;94382.53;4968196;28;20034;-70
2021/05/18 02:57:12;;;;;;;1.73;1.10;;;;;;;23.91;46.60;94389.88;4968466;28;20035;-70
2021/05/18 02:59:38;;;;;;;1.20;1.00;;;;;;;23.90;46.61;94382.97;4968257;28;20038;-71
2021/05/18 03:02:03;;;;;;;1.10;0.90;;;;;;;23.95;47.27;94384.84;4951088;28;20486;-71
2021/05/18 03:04:29;;;;;;;2.33;1.30;;;;;;;23.92;46.97;94374.97;4967453;28;20494;-69
2021/05/18 03:06:54;;;;;;;1.73;1.17;;;;;;;23.94;46.83;94377.91;4969994;28;20486;-70
2021/05/18 03:09:20;;;;;;;1.42;1.00;;;;;;;23.97;47.30;94370.66;4952438;28;20030;-69
2021/05/18 03:11:47;;;;;;;1.25;0.95;;;;;;;23.76;47.62;94350.06;4970303;28;20034;-70
2021/05/18 03:14:13;;;;;;;1.63;1.00;;;;;;;23.97;47.59;94387.75;4952069;28;20062;-69
2021/05/18 03:16:38;;;;;;;1.58;1.00;;;;;;;23.66;47.39;94335.41;4973103;28;20478;-70
2021/05/18 03:19:04;;;;;;;1.40;1.10;;;;;;;24.05;47.44;94377.69;4940692;28;20035;-70
2021/05/18 03:21:30;;;;;;;1.25;1.00;;;;;;;24.00;47.05;94366.88;4972963;28;20174;-69
2021/05/18 03:23:56;;;;;;;1.65;1.20;;;;;;;23.86;46.94;94333.47;4956473;28;20121;-69
2021/05/18 03:26:21;;;;;;;1.20;0.85;;;;;;;23.97;47.39;94349.56;4971163;28;20038;-70
2021/05/18 03:28:54;;;;;;;1.33;0.90;;;;;;;23.89;46.80;94321.50;4948781;28;20050;-69
2021/05/18 03:36:47;;;;;;;1.40;0.80;;;;;;;24.58;46.06;94370.81;4964427;28;20037;-69
2021/05/18 03:39:12;;;;;;;1.40;1.02;;;;;;;24.72;46.32;94366.72;4972778;28;20430;-70
2021/05/18 03:41:54;;;;;;;1.02;0.90;;;;;;;24.76;45.63;94375.34;4972845;28;20034;-69
2021/05/18 03:44:28;;;;;;;1.73;1.00;;;;;;;24.91;45.29;94378.91;4971813;28;20118;-70
2021/05/18 04:03:25;;;;;;;1.48;1.00;;;;;;;25.52;43.75;94397.97;4970053;28;20066;-70
2021/05/18 04:19:05;;;;;;;1.67;0.98;;;;;;;25.91;43.10;94418.25;4951285;28;20085;-70
2021/05/18 05:01:23;;;;;;;1.52;1.23;;;;;;;26.84;41.96;94459.31;4961309;28;20034;-70
2021/05/18 05:04:01;;;;;;;2.85;1.10;;;;;;;26.83;42.32;94466.81;4938772;28;20055;-71
2021/05/18 05:09:18;;;;;;;1.30;0.98;;;;;;;26.94;42.13;94466.50;4958797;28;20031;-71
2021/05/18 05:14:28;;;;;;;1.30;1.00;;;;;;;26.94;40.79;94469.22;4959969;28;20042;-70
2021/05/18 05:16:53;;;;;;;2.35;0.82;;;;;;;26.92;41.62;94480.00;4963828;28;20034;-70
2021/05/18 05:19:20;;;;;;;1.35;1.00;;;;;;;26.78;41.60;94453.28;4979228;28;20042;-70
2021/05/18 05:21:45;;;;;;;1.15;0.75;;;;;;;26.92;41.71;94479.25;4975864;28;20071;-70
2021/05/18 05:24:11;;;;;;;1.40;0.90;;;;;;;26.91;41.83;94473.06;4981047;28;20437;-69
2021/05/18 05:26:37;;;;;;;1.55;0.90;;;;;;;27.04;41.36;94475.66;4981280;28;20053;-69
2021/05/18 05:29:03;;;;;;;1.40;1.00;;;;;;;26.96;42.12;94485.84;4963255;28;20038;-70
2021/05/18 05:31:29;;;;;;;1.13;0.88;;;;;;;27.06;41.74;94489.53;4960131;28;20035;-69
2021/05/18 05:33:54;;;;;;;1.30;0.93;;;;;;;27.15;41.61;94491.75;4982357;28;20030;-68
2021/05/18 05:36:19;;;;;;;1.27;1.00;;;;;;;27.14;41.69;94489.53;4982479;28;20155;-68
2021/05/18 05:38:48;;;;;;;1.30;0.70;;;;;;;27.24;41.18;94482.97;4964905;28;20037;-67
2021/05/18 05:41:14;;;;;;;1.20;0.70;;;;;;;27.26;41.20;94485.91;4980001;28;20073;-70
2021/05/18 05:43:40;;;;;;;0.73;0.60;;;;;;;27.28;41.04;94486.81;4963478;28;20049;-68
2021/05/18 05:46:07;;;;;;;0.95;0.70;;;;;;;27.22;41.26;94502.00;4976597;28;20030;-68
2021/05/18 05:48:32;;;;;;;1.15;0.80;;;;;;;27.02;41.25;94467.22;4975932;28;20513;-69
2021/05/18 05:50:57;;;;;;;1.10;0.70;;;;;;;27.28;40.99;94499.81;4981456;28;20018;-70
2021/05/18 05:53:23;;;;;;;2.35;0.90;;;;;;;27.15;41.46;94474.56;4945657;28;20029;-70
2021/05/18 05:55:48;;;;;;;1.42;0.90;;;;;;;27.32;41.11;94505.66;4978318;28;20479;-69
2021/05/18 05:58:15;;;;;;;0.90;0.70;;;;;;;27.34;41.35;94503.81;4980164;28;20058;-69
2021/05/18 06:00:40;;;;;;;1.50;0.85;;;;;;;27.36;41.66;94506.03;4970508;28;20402;-69
2021/05/18 06:03:06;;;;;;;1.30;0.73;;;;;;;27.41;41.35;94507.84;4972281;28;20567;-69
2021/05/18 06:05:31;;;;;;;1.55;0.80;;;;;;;27.38;41.01;94503.44;4971194;28;20030;-70
2021/05/18 06:07:57;;;;;;;1.35;0.80;;;;;;;27.38;41.35;94503.44;4959192;28;21607;-70
2021/05/18 06:10:32;;;;;;;2.05;0.70;;;;;;;27.51;41.52;94517.03;4961407;28;20026;-71
2021/05/18 06:42:45;;;;;;;2.30;0.90;;;;;;;26.73;42.39;94521.97;4965408;28;20069;-72
2021/05/18 06:47:55;;;;;;;2.20;0.80;;;;;;;26.52;42.22;94513.09;4970138;28;20089;-72
2021/05/18 06:52:53;;;;;;;1.05;0.75;;;;;;;26.45;42.79;94519.28;4973558;28;20162;-72
2021/05/18 06:55:22;;;;;;;2.35;0.82;;;;;;;26.39;43.08;94533.13;4968756;28;20050;-72
2021/05/18 06:57:50;;;;;;;1.15;0.73;;;;;;;26.30;43.20;94524.69;4969548;28;20417;-72
2021/05/18 07:00:20;;;;;;;1.38;0.70;;;;;;;26.23;43.20;94530.09;4952303;28;20494;-72
2021/05/18 07:02:46;;;;;;;2.67;1.08;;;;;;;26.21;43.07;94527.88;4971182;28;20478;-72
2021/05/18 07:07:51;;;;;;;1.85;0.65;;;;;;;26.09;43.65;94526.00;4976223;28;20113;-71
2021/05/18 07:10:16;;;;;;;;;;;;;;;26.04;43.72;94530.34;4973915;28;20035;-72
2021/05/18 07:12:42;;;;;;;1.53;0.60;;;;;;;25.97;42.87;94531.03;4970800;28;19914;-72
2021/05/18 07:15:08;;;;;;;1.75;1.00;;;;;;;25.89;43.39;94533.00;4972263;28;20300;-72
2021/05/18 07:17:33;;;;;;;1.73;0.82;;;;;;;25.83;43.49;94521.47;4968776;28;20046;-73
2021/05/18 07:19:59;;;;;;;2.40;0.77;;;;;;;25.72;44.31;94526.47;4954868;28;20026;-72
2021/05/18 07:22:24;;;;;;;1.70;1.08;;;;;;;25.77;43.84;94527.59;4953418;28;20035;-72
2021/05/18 07:24:49;;;;;;;1.38;0.80;;;;;;;25.67;44.39;94529.38;4957989;28;20569;-71
2021/05/18 07:27:15;;;;;;;1.58;0.70;;;;;;;25.58;44.15;94527.06;4971059;28;20565;-72
2021/05/18 07:29:40;;;;;;;1.02;0.80;;;;;;;25.45;43.86;94519.66;4955685;28;20030;-70
2021/05/18 07:32:06;;;;;;;1.88;0.60;;;;;;;25.59;44.52;94539.47;4970785;28;20030;-72
2021/05/18 07:34:31;;;;;;;1.70;0.70;;;;;;;25.59;43.76;94542.19;4953998;28;20022;-71
2021/05/18 07:36:57;;;;;;;1.73;0.75;;;;;;;25.56;44.33;94546.00;4971518;28;20069;-72
2021/05/18 07:39:22;;;;;;;2.50;0.60;;;;;;;25.54;44.51;94543.06;4952462;28;20026;-71
2021/05/18 07:41:48;;;;;;;1.30;0.70;;;;;;;25.47;44.83;94554.66;4968453;28;20023;-72
2021/05/18 07:44:14;;;;;;;0.77;0.50;;;;;;;25.44;44.69;94555.75;4969418;28;20034;-71
2021/05/18 07:46:42;;;;;;;1.63;0.60;;;;;;;25.44;44.71;94550.28;4968823;28;20043;-72
2021/05/18 07:49:58;;;;;;;2.53;0.82;;;;;;;25.29;44.92;94539.22;4969345;28;20158;-72
2021/05/18 08:00:20;;;;;;;2.25;0.82;;;;;;;25.27;44.87;94563.59;4956007;28;20598;-72
2021/05/18 08:05:34;;;;;;;2.15;0.73;;;;;;;25.06;44.17;94538.25;4942970;28;20538;-71
2021/05/18 08:07:59;;;;;;;0.88;0.60;;;;;;;25.26;45.20;94567.63;4951180;28;20035;-70
2021/05/18 08:12:50;;;;;;;1.13;0.80;;;;;;;25.27;44.72;94560.88;4951832;28;20042;-70
2021/05/18 08:18:02;;;;;;;0.98;0.60;;;;;;;25.27;44.44;94563.59;4967231;28;20482;-72
2021/05/18 08:46:57;;;;;;;1.00;0.77;;;;;;;25.15;44.68;94551.47;4964086;28;20061;-72
2021/05/18 10:36:00;;;;;;;1.63;0.75;;;;;;;27.10;38.38;94550.22;4982113;28;20109;-70
2021/05/18 10:38:29;;;;;;;3.15;0.77;;;;;;;27.12;39.27;94558.63;4983076;28;20031;-71
2021/05/18 10:41:18;;;;;;;2.50;0.80;;;;;;;27.20;39.13;94558.66;4983856;28;20042;-71
2021/05/18 10:44:02;;;;;;;6.32;1.02;;;;;;;27.24;38.39;94560.47;4979934;28;20498;-71
2021/05/18 10:46:34;;;;;;;2.05;1.00;;;;;;;27.27;38.33;94580.59;4971468;28;20034;-72
2021/05/18 10:49:00;;;;;;;2.25;0.70;;;;;;;27.30;39.61;94568.53;4940462;28;20097;-72
2021/05/18 10:51:32;;;;;;;2.50;0.73;;;;;;;27.33;37.76;94567.44;4970813;28;20042;-72
2021/05/18 10:54:26;;;;;;;2.42;0.70;;;;;;;27.31;37.43;94564.53;4956350;28;20081;-72
2021/05/18 10:59:20;;;;;;;2.53;1.02;;;;;;;27.09;37.58;94532.31;4969955;28;20027;-72
2021/05/18 11:01:46;;;;;;;3.05;0.68;;;;;;;27.24;37.44;94570.72;4971652;28;20408;-71
2021/05/18 11:04:12;;;;;;;2.78;0.77;;;;;;;27.20;37.32;94570.34;4971848;28;20542;-72
2021/05/18 11:06:57;;;;;;;3.92;0.70;;;;;;;27.14;37.16;94569.78;4971525;28;20034;-72
2021/05/18 11:09:23;;;;;;;2.38;0.80;;;;;;;27.19;37.31;94579.84;4971210;28;20106;-72
2021/05/18 11:11:49;;;;;;;2.80;0.70;;;;;;;27.16;37.37;94575.47;4953435;28;20031;-71
2021/05/18 11:14:17;;;;;;;2.05;0.50;;;;;;;27.10;37.66;94561.19;4969234;28;20097;-72
2021/05/18 11:16:43;;;;;;;1.65;0.80;;;;;;;26.80;37.52;94528.19;4952637;28;20073;-72
2021/05/18 11:19:11;;;;;;;1.10;0.60;;;;;;;27.00;37.44;94568.47;4953988;28;20019;-72
2021/05/18 11:21:39;;;;;;;2.33;0.73;;;;;;;26.80;37.58;94522.69;4965235;28;20018;-72
2021/05/18 11:24:12;;;;;;;2.75;0.63;;;;;;;26.88;37.35;94561.81;4948790;28;20110;-72
2021/05/18 11:26:49;;;;;;;3.05;0.77;;;;;;;26.90;37.64;94559.28;4966035;28;20509;-70
2021/05/18 11:29:15;;;;;;;2.42;0.40;;;;;;;26.84;37.55;94561.44;4960319;28;20015;-72
2021/05/18 11:31:40;;;;;;;2.88;0.90;;;;;;;26.76;37.53;94553.75;4969917;28;20053;-71
2021/05/18 11:34:06;;;;;;;1.58;0.50;;;;;;;26.69;37.79;94559.91;4962337;28;20026;-71
2021/05/18 11:36:35;;;;;;;1.52;0.50;;;;;;;26.61;37.81;94548.22;4966469;28;20039;-72
2021/05/18 11:39:08;;;;;;;2.17;0.55;;;;;;;26.68;37.89;94558.44;4941278;28;20039;-72
2021/05/18 11:41:36;;;;;;;1.20;0.40;;;;;;;26.67;38.05;94567.94;4964082;28;20042;-72
2021/05/18 11:44:01;;;;;;;1.52;0.40;;;;;;;26.63;38.25;94557.31;4964252;28;20050;-72
2021/05/18 11:46:31;;;;;;;1.00;0.70;;;;;;;26.63;38.02;94551.13;4963272;28;20443;-71
2021/05/18 11:49:00;;;;;;;3.28;0.90;;;;;;;26.58;38.45;94549.28;4959288;28;20041;-71
2021/05/18 11:51:25;;;;;;;2.15;0.47;;;;;;;26.58;38.37;94560.25;4967340;28;20055;-71
2021/05/18 11:53:52;;;;;;;1.45;0.50;;;;;;;26.60;38.53;94552.22;4944007;28;20027;-71
2021/05/18 11:56:31;;;;;;;1.05;0.52;;;;;;;26.48;38.75;94551.06;4956425;28;20015;-72
2021/05/18 11:59:04;;;;;;;1.53;0.43;;;;;;;26.48;38.40;94567.50;4937234;28;20501;-71
2021/05/18 12:01:30;;;;;;;1.77;0.50;;;;;;;26.39;38.59;94554.28;4966361;28;20041;-71
2021/05/18 12:04:12;;;;;;;1.73;0.50;;;;;;;26.34;38.69;94553.19;4950087;29;20137;-71
2021/05/18 12:06:42;;;;;;;2.03;0.55;;;;;;;26.31;38.28;94548.06;4944964;28;20035;-71
2021/05/18 12:09:10;;;;;;;4.10;0.60;;;;;;;26.27;38.35;94550.38;4947015;28;20102;-72
2021/05/18 12:11:35;;;;;;;1.35;0.50;;;;;;;26.24;38.73;94559.66;4946744;28;20435;-71
2021/05/18 12:14:06;;;;;;;1.98;0.47;;;;;;;26.23;38.30;94552.72;4948580;28;20031;-71
2021/05/18 12:16:31;;;;;;;2.13;0.50;;;;;;;26.23;38.83;94549.97;4947455;28;20027;-71
2021/05/18 12:18:57;;;;;;;2.63;0.63;;;;;;;26.21;38.54;94549.78;4966175;28;20519;-70
2021/05/18 12:21:28;;;;;;;2.90;0.65;;;;;;;26.21;38.64;94544.31;4949841;29;20078;-71
2021/05/18 12:24:03;;;;;;;1.33;0.50;;;;;;;26.20;39.08;94548.31;4951034;28;20023;-71
2021/05/18 12:26:29;;;;;;;0.90;0.50;;;;;;;26.24;38.58;94537.75;4951687;28;20027;-71
2021/05/18 12:28:56;;;;;;;1.50;0.30;;;;;;;26.24;38.96;94543.22;4934175;28;20427;-71
2021/05/18 12:31:26;;;;;;;0.70;0.40;;;;;;;26.22;38.62;94528.59;4945140;29;20031;-71
2021/05/18 12:33:51;;;;;;;2.03;0.52;;;;;;;26.21;39.04;94549.78;4948557;28;20055;-71
2021/05/18 12:36:18;;;;;;;1.50;0.60;;;;;;;26.18;38.70;94550.88;4947027;28;20519;-71
2021/05/18 12:38:43;;;;;;;1.75;0.60;;;;;;;26.12;39.04;94536.59;4947594;28;20766;-70
2021/05/18 12:41:09;;;;;;;1.20;0.40;;;;;;;26.16;38.63;94541.72;4943665;28;20083;-76
2021/05/18 12:43:41;;;;;;;1.55;0.50;;;;;;;26.21;38.86;94533.34;4934207;29;20078;-72
2021/05/18 12:46:08;;;;;;;1.88;0.50;;;;;;;26.22;39.08;94534.84;4950934;28;20042;-74
2021/05/18 12:48:42;;;;;;;3.92;0.40;;;;;;;26.20;39.42;94531.88;4950858;28;20023;-72
2021/05/18 12:51:18;;;;;;;1.70;0.50;;;;;;;26.17;39.69;94543.19;4950223;29;20089;-72
2021/05/18 12:53:44;;;;;;;1.52;0.30;;;;;;;26.10;34.72;94538.41;4951223;28;20034;-72
2021/05/18 12:56:12;;;;;;;0.57;0.20;;;;;;;25.95;34.21;94577.34;4965690;28;20400;-73
2021/05/18 12:58:38;;;;;;;1.20;0.22;;;;;;;25.83;33.39;94548.81;4965435;28;20038;-72
2021/05/18 13:01:13;;;;;;;1.02;0.40;;;;;;;25.79;34.13;94553.88;4945674;29;20071;-72
2021/05/18 13:03:40;;;;;;;1.63;0.47;;;;;;;25.74;32.83;94556.03;4948020;29;20067;-77
2021/05/18 13:06:06;;;;;;;1.75;0.40;;;;;;;25.63;32.31;94545.34;4954364;28;20124;-73
2021/05/18 13:08:33;;;;;;;1.30;0.40;;;;;;;25.53;32.25;94530.66;4952720;28;20140;-73
2021/05/18 13:13:27;;;;;;;1.85;0.40;;;;;;;25.49;32.44;94541.22;4951900;29;20042;-72
2021/05/18 13:16:07;;;;;;;0.80;0.20;;;;;;;25.59;34.27;94539.47;4949992;29;20058;-72
2021/05/18 13:18:32;;;;;;;1.02;0.30;;;;;;;25.66;35.50;94533.34;4947691;28;20518;-71
2021/05/18 13:20:58;;;;;;;1.63;0.30;;;;;;;25.79;35.77;94552.44;4947162;28;20023;-71
2021/05/18 13:23:53;;;;;;;2.05;0.35;;;;;;;25.84;35.22;94539.34;4946235;28;20051;-72
2021/05/18 13:26:29;;;;;;;1.20;0.30;;;;;;;25.67;35.79;94507.47;4948104;28;20027;-71
2021/05/18 13:29:02;;;;;;;3.00;0.65;;;;;;;26.00;35.73;94546.38;4949139;28;20031;-69
2021/05/18 13:31:28;;;;;;;0.70;0.30;;;;;;;25.88;35.70;94495.94;4935094;29;20038;-69
2021/05/18 13:33:53;;;;;;;0.93;0.30;;;;;;;26.06;35.72;94527.06;4932409;29;20031;-68
2021/05/18 13:36:19;;;;;;;1.10;0.40;;;;;;;26.11;36.04;94551.53;4949054;28;20098;-68
2021/05/18 13:38:44;;;;;;;1.52;0.38;;;;;;;25.95;35.82;94500.75;4949668;28;20031;-72
2021/05/18 13:41:10;;;;;;;1.55;0.60;;;;;;;26.17;36.08;94538.44;4947751;28;20036;-72
2021/05/18 13:43:35;;;;;;;0.77;0.30;;;;;;;25.90;36.12;94509.84;4940630;28;20027;-71
2021/05/18 13:46:01;;;;;;;1.35;0.50;;;;;;;26.18;36.48;94539.19;4941092;28;20043;-71
2021/05/18 13:48:27;;;;;;;1.55;0.60;;;;;;;26.19;36.77;94541.38;4947733;28;20030;-71
2021/05/18 13:50:52;;;;;;;0.80;0.30;;;;;;;26.02;36.73;94532.91;4945790;28;20406;-71
2021/05/18 13:53:18;;;;;;;0.88;0.40;;;;;;;26.18;36.57;94534.44;4941097;28;20035;-71
2021/05/18 13:55:44;;;;;;;0.80;0.32;;;;;;;26.15;36.68;94551.94;4940966;28;20091;-72
2021/05/18 13:58:09;;;;;;;1.05;0.40;;;;;;;26.11;36.48;94559.75;4938626;29;20423;-71
2021/05/18 14:00:35;;;;;;;2.13;0.30;;;;;;;26.08;36.93;94558.09;4942998;29;20031;-71
2021/05/18 14:03:00;;;;;;;1.75;0.35;;;;;;;26.10;36.84;94550.09;4945982;28;20050;-71
2021/05/18 14:05:28;;;;;;;1.13;0.43;;;;;;;26.12;37.11;94550.28;4949596;28;20023;-72
2021/05/18 14:08:18;;;;;;;1.13;0.30;;;;;;;26.14;37.19;94555.94;4965725;28;20081;-72
2021/05/18 14:10:44;;;;;;;0.95;0.43;;;;;;;26.15;37.33;94557.41;4960889;28;20086;-71
2021/05/18 14:13:09;;;;;;;0.85;0.32;;;;;;;26.16;37.35;94560.88;4959692;28;20039;-72
2021/05/18 14:15:34;;;;;;;1.27;0.45;;;;;;;26.17;37.04;94549.38;4963297;28;20043;-71
2021/05/18 14:18:00;;;;;;;1.00;0.50;;;;;;;25.91;37.38;94505.81;4956952;28;20031;-71
2021/05/18 14:20:25;;;;;;;1.08;0.40;;;;;;;26.23;36.87;94549.97;4956241;28;20035;-72
2021/05/18 14:22:51;;;;;;;1.02;0.50;;;;;;;26.27;36.78;94558.56;4954791;28;20027;-71
2021/05/18 14:25:16;;;;;;;0.60;0.30;;;;;;;26.26;37.42;94551.63;4968067;28;20031;-72
2021/05/18 14:27:43;;;;;;;1.15;0.30;;;;;;;26.29;36.91;94561.53;4937382;28;20035;-71
2021/05/18 14:30:12;;;;;;;0.90;0.20;;;;;;;26.36;37.26;94555.38;4965234;28;20554;-71
2021/05/18 14:32:37;;;;;;;1.35;0.65;;;;;;;26.36;36.69;94555.38;4968453;28;20410;-72
2021/05/18 14:35:05;;;;;;;0.47;0.20;;;;;;;26.38;37.34;94558.28;4967054;28;20034;-73
2021/05/18 14:37:30;;;;;;;1.10;0.30;;;;;;;26.35;36.96;94551.16;4968690;28;20534;-72
2021/05/18 14:40:06;;;;;;;0.70;0.22;;;;;;;26.22;36.61;94545.78;4960368;28;20037;-71
2021/05/18 14:45:17;;;;;;;1.38;0.28;;;;;;;26.23;36.55;94528.06;4962561;28;20435;-71
2021/05/18 14:55:37;;;;;;;1.40;0.30;;;;;;;26.53;35.80;94542.69;4968988;28;20525;-72
2021/05/18 14:58:02;;;;;;;1.25;0.30;;;;;;;26.49;35.36;94547.06;4950751;28;20019;-71
2021/05/18 15:00:29;;;;;;;1.35;0.32;;;;;;;26.57;35.33;94547.81;4968796;28;20106;-72
2021/05/18 15:02:54;;;;;;;1.05;0.40;;;;;;;26.57;35.83;94531.38;4968614;28;20430;-71
2021/05/18 15:05:20;;;;;;;1.25;0.35;;;;;;;26.53;35.06;94520.03;4947854;28;20030;-72
2021/05/18 15:07:46;;;;;;;0.50;0.30;;;;;;;26.35;34.75;94493.66;4949451;28;20114;-71
2021/05/18 15:10:11;;;;;;;0.57;0.25;;;;;;;26.66;34.80;94528.84;4953341;28;20426;-71
2021/05/18 15:12:37;;;;;;;1.30;0.35;;;;;;;26.65;34.92;94526.66;4969957;28;20037;-72
2021/05/18 15:15:03;;;;;;;0.90;0.40;;;;;;;26.77;34.74;94534.03;4970870;28;20019;-71
2021/05/18 15:17:29;;;;;;;1.17;0.40;;;;;;;27.00;34.40;94530.09;4971836;28;20110;-71
2021/05/18 15:19:55;;;;;;;1.38;0.40;;;;;;;27.11;34.07;94529.75;4954851;28;20081;-71
2021/05/18 15:22:21;;;;;;;0.60;0.30;;;;;;;27.21;33.71;94549.88;4938867;28;20027;-71
2021/05/18 15:24:46;;;;;;;1.35;0.40;;;;;;;27.31;33.61;94543.31;4971678;28;20487;-71
2021/05/18 15:27:12;;;;;;;1.58;0.60;;;;;;;27.36;33.12;94538.94;4954725;28;20135;-72
2021/05/18 15:29:37;;;;;;;1.23;0.30;;;;;;;27.40;33.26;94533.81;4971680;28;20517;-71
2021/05/18 15:32:03;;;;;;;1.65;0.38;;;;;;;27.45;33.03;94535.66;4971692;28;20396;-72
2021/05/18 15:34:29;;;;;;;1.08;0.45;;;;;;;27.50;32.82;94537.50;4971592;28;20027;-72
2021/05/18 15:36:55;;;;;;;1.05;0.20;;;;;;;27.52;32.55;94538.44;4970442;28;20022;-72
2021/05/18 15:39:20;;;;;;;1.42;0.35;;;;;;;27.47;32.57;94535.81;4969325;28;20039;-72
2021/05/18 15:41:46;;;;;;;0.60;0.40;;;;;;;27.42;32.38;94536.75;4961432;28;20458;-71
2021/05/18 15:44:11;;;;;;;0.70;0.30;;;;;;;27.36;32.51;94533.44;4953500;28;20022;-72
2021/05/18 15:46:37;;;;;;;0.80;0.30;;;;;;;27.27;32.65;94542.22;4971160;28;20030;-72
2021/05/18 15:49:03;;;;;;;0.65;0.20;;;;;;;27.13;32.82;94529.94;4954289;28;20025;-72
2021/05/18 15:51:30;;;;;;;1.30;0.30;;;;;;;27.03;32.79;94529.00;4971320;28;20026;-71
2021/05/18 15:53:55;;;;;;;0.68;0.30;;;;;;;26.96;33.09;94528.97;4969519;28;20417;-70
2021/05/18 15:56:22;;;;;;;1.50;0.30;;;;;;;26.90;32.97;94542.84;4969330;28;20037;-72
2021/05/18 15:58:48;;;;;;;0.90;0.28;;;;;;;26.89;32.31;94541.41;4941862;28;20114;-72
2021/05/18 16:01:13;;;;;;;0.50;0.20;;;;;;;26.53;32.39;94509.06;4970044;28;20049;-71
2021/05/18 16:03:38;;;;;;;1.55;0.30;;;;;;;26.84;32.21;94550.47;4953499;28;20054;-72
2021/05/18 16:06:04;;;;;;;1.20;0.35;;;;;;;26.79;33.07;94548.63;4962814;28;20031;-73
2021/05/18 16:10:56;;;;;;;1.10;0.30;;;;;;;26.75;33.06;94535.84;4970901;28;20040;-71
2021/05/18 16:13:21;;;;;;;2.47;0.40;;;;;;;26.76;33.03;94537.31;4953672;28;20030;-71
2021/05/18 16:15:47;;;;;;;2.00;0.30;;;;;;;26.70;33.07;94550.44;4970675;28;20041;-72
2021/05/18 16:18:12;;;;;;;1.02;0.40;;;;;;;26.65;33.32;94537.59;4953773;28;20018;-72
2021/05/18 16:20:38;;;;;;;0.75;0.20;;;;;;;26.63;32.99;94540.16;4970791;28;20025;-71
2021/05/18 16:23:05;;;;;;;2.28;0.30;;;;;;;26.58;33.38;94543.81;4952645;28;20529;-72
2021/05/18 16:25:30;;;;;;;1.45;0.35;;;;;;;26.55;33.37;94556.56;4953845;28;20517;-72
2021/05/18 16:27:56;;;;;;;2.05;0.30;;;;;;;26.54;33.51;94532.47;4962992;28;20035;-72
2021/05/18 16:30:21;;;;;;;11.40;1.40;;;;;;;26.23;34.70;94500.69;4952720;28;20027;-72
2021/05/18 16:32:47;;;;;;;6.10;0.45;;;;;;;26.21;34.47;94511.47;4969155;28;20062;-71
2021/05/18 16:35:12;;;;;;;4.40;0.70;;;;;;;26.44;32.39;94539.72;4971110;28;20029;-71
2021/05/18 16:37:39;;;;;;;1.10;0.40;;;;;;;26.38;32.08;94533.66;4971630;28;20027;-72
2021/05/18 16:40:05;;;;;;;2.42;0.70;;;;;;;26.37;31.07;94537.69;4955743;28;20044;-72
2021/05/18 16:42:32;;;;;;;3.55;0.30;;;;;;;26.31;31.86;94537.09;4972322;28;20062;-72
2021/05/18 16:44:57;;;;;;;3.17;0.52;;;;;;;26.23;32.09;94536.28;4971434;28;20031;-71